createdAt,value
2018-10-09T00:00:23.214Z,99.99
2018-10-09T00:01:23.231Z,99.99
2018-10-09T00:02:23.252Z,99.99
2018-10-09T00:03:23.269Z,99.99
2018-10-09T00:04:23.283Z,99.99
2018-10-09T00:05:23.303Z,99.99
2018-10-09T00:06:23.320Z,99.99
2018-10-09T00:07:23.337Z,99.99
2018-10-09T00:08:23.355Z,99.99
2018-10-09T00:09:23.372Z,99.99
2018-10-09T00:10:23.389Z,99.99
2018-10-09T00:11:23.407Z,99.99
2018-10-09T00:12:23.429Z,99.99
2018-10-09T00:13:23.443Z,99.99
2018-10-09T00:14:23.460Z,99.99
2018-10-09T00:15:23.483Z,99.99
2018-10-09T00:16:23.498Z,99.99
2018-10-09T00:17:23.518Z,99.99
2018-10-09T00:18:23.534Z,99.99
2018-10-09T00:19:23.550Z,99.99
2018-10-09T00:20:23.567Z,99.99
2018-10-09T00:21:23.584Z,99.99
2018-10-09T00:22:23.605Z,99.99
2018-10-09T00:23:23.620Z,99.99
2018-10-09T00:24:23.639Z,99.99
2018-10-09T00:25:23.654Z,99.99
2018-10-09T00:26:23.672Z,99.99
2018-10-09T00:27:23.692Z,99.99
2018-10-09T00:28:23.706Z,99.99
2018-10-09T00:29:23.723Z,99.99
2018-10-09T00:30:23.744Z,99.99
2018-10-09T00:31:23.762Z,99.99
2018-10-09T00:32:23.778Z,99.99
2018-10-09T00:33:23.800Z,99.99
2018-10-09T00:34:23.811Z,99.99
2018-10-09T00:35:23.828Z,99.99
2018-10-09T00:36:23.844Z,99.99
2018-10-09T00:37:23.865Z,99.99
2018-10-09T00:38:23.881Z,99.99
2018-10-09T00:39:23.900Z,99.99
2018-10-09T00:40:23.917Z,99.99
2018-10-09T00:41:23.932Z,99.99
2018-10-09T00:42:23.949Z,99.99
2018-10-09T00:43:23.969Z,99.99
2018-10-09T00:44:23.987Z,99.99
2018-10-09T00:45:24.001Z,99.99
2018-10-09T00:46:24.021Z,99.99
2018-10-09T00:47:24.037Z,99.99
2018-10-09T00:48:24.057Z,99.99
2018-10-09T00:49:24.074Z,99.99
2018-10-09T00:50:24.089Z,99.99
2018-10-09T00:51:24.109Z,99.99
2018-10-09T00:52:24.123Z,99.99
2018-10-09T00:53:24.144Z,99.99
2018-10-09T00:54:24.162Z,99.99
2018-10-09T00:55:24.180Z,99.99
2018-10-09T00:56:24.193Z,99.99
2018-10-09T00:57:24.213Z,99.99
2018-10-09T00:58:24.230Z,99.99
2018-10-09T00:59:24.249Z,99.99
2018-10-09T01:00:24.264Z,99.99
2018-10-09T01:01:24.284Z,99.99
2018-10-09T01:02:24.301Z,99.99
2018-10-09T01:03:24.317Z,99.99
2018-10-09T01:04:24.333Z,99.99
2018-10-09T01:05:24.354Z,99.99
2018-10-09T01:06:24.369Z,99.99
2018-10-09T01:07:24.392Z,99.99
2018-10-09T01:08:24.405Z,99.99
2018-10-09T01:09:24.422Z,99.99
2018-10-09T01:10:24.441Z,99.99
2018-10-09T01:11:24.456Z,99.99
2018-10-09T01:12:24.473Z,99.99
2018-10-09T01:13:24.492Z,99.99
2018-10-09T01:14:24.516Z,99.99
2018-10-09T01:15:24.528Z,99.99
2018-10-09T01:16:24.544Z,99.99
2018-10-09T01:17:24.567Z,99.99
2018-10-09T01:18:24.578Z,99.99
2018-10-09T01:19:24.597Z,99.99
2018-10-09T01:20:24.613Z,99.99
2018-10-09T01:21:24.631Z,99.99
2018-10-09T01:22:24.653Z,99.99
2018-10-09T01:23:24.669Z,99.99
2018-10-09T01:24:24.684Z,99.99
2018-10-09T01:25:24.700Z,99.99
2018-10-09T01:26:24.721Z,99.99
2018-10-09T01:27:24.739Z,99.99
2018-10-09T01:28:24.753Z,99.99
2018-10-09T01:29:24.770Z,99.99
2018-10-09T01:30:24.789Z,99.99
2018-10-09T01:31:24.807Z,99.99
2018-10-09T01:32:24.826Z,99.99
2018-10-09T01:33:24.846Z,99.99
2018-10-09T01:34:24.858Z,99.99
2018-10-09T01:35:24.875Z,99.99
2018-10-09T01:36:24.892Z,99.99
2018-10-09T01:37:24.913Z,99.99
2018-10-09T01:38:24.927Z,99.99
2018-10-09T01:39:24.945Z,99.99
2018-10-09T01:40:24.963Z,99.99
2018-10-09T01:41:24.982Z,99.99
2018-10-09T01:42:24.999Z,99.99
2018-10-09T01:43:25.018Z,99.99
2018-10-09T01:44:25.032Z,99.99
2018-10-09T01:45:25.048Z,99.99
2018-10-09T01:46:25.067Z,99.99
2018-10-09T01:47:25.087Z,99.99
2018-10-09T01:48:25.101Z,99.99
2018-10-09T01:49:25.122Z,99.99
2018-10-09T01:50:25.138Z,99.99
2018-10-09T01:51:25.157Z,99.99
2018-10-09T01:52:25.171Z,99.99
2018-10-09T01:53:25.190Z,99.99
2018-10-09T01:54:25.206Z,99.99
2018-10-09T01:55:25.229Z,99.99
2018-10-09T01:56:25.243Z,99.99
2018-10-09T01:57:25.258Z,99.99
2018-10-09T01:58:25.277Z,99.99
2018-10-09T01:59:25.295Z,99.99
2018-10-09T02:00:25.311Z,99.99
2018-10-09T02:01:25.327Z,99.99
2018-10-09T02:02:25.346Z,99.99
2018-10-09T02:03:25.362Z,99.99
2018-10-09T02:04:25.382Z,99.99
2018-10-09T02:05:25.397Z,99.99
2018-10-09T02:06:25.418Z,99.99
2018-10-09T02:07:25.439Z,99.99
2018-10-09T02:08:25.449Z,99.99
2018-10-09T02:09:25.467Z,99.99
2018-10-09T02:10:25.484Z,99.99
2018-10-09T02:11:25.502Z,99.99
2018-10-09T02:12:25.524Z,99.99
2018-10-09T02:13:25.538Z,99.99
2018-10-09T02:14:25.553Z,99.99
2018-10-09T02:15:25.574Z,99.99
2018-10-09T02:16:25.591Z,99.99
2018-10-09T02:17:25.605Z,99.99
2018-10-09T02:18:25.625Z,99.99
2018-10-09T02:19:25.640Z,99.99
2018-10-09T02:20:25.660Z,99.99
2018-10-09T02:21:25.677Z,99.99
2018-10-09T02:22:25.691Z,99.99
2018-10-09T02:23:25.712Z,99.99
2018-10-09T02:24:25.726Z,99.99
2018-10-09T02:25:25.745Z,99.99
2018-10-09T02:26:25.765Z,99.99
2018-10-09T02:27:25.778Z,99.99
2018-10-09T02:28:25.799Z,99.99
2018-10-09T02:29:25.814Z,99.99
2018-10-09T02:30:25.832Z,99.99
2018-10-09T02:31:25.850Z,99.99
2018-10-09T02:32:25.865Z,99.99
2018-10-09T02:33:25.935Z,99.99
2018-10-09T02:34:25.898Z,99.99
2018-10-09T02:35:25.915Z,99.99
2018-10-09T02:36:25.935Z,99.99
2018-10-09T02:37:25.962Z,99.99
2018-10-09T02:38:25.967Z,99.99
2018-10-09T02:39:25.984Z,99.99
2018-10-09T02:40:26.000Z,99.99
2018-10-09T02:41:26.017Z,99.99
2018-10-09T02:42:26.035Z,99.99
2018-10-09T02:43:26.053Z,99.99
2018-10-09T02:44:26.071Z,99.99
2018-10-09T02:45:26.088Z,99.99
2018-10-09T02:46:26.102Z,99.99
2018-10-09T02:47:26.121Z,99.99
2018-10-09T02:48:26.139Z,99.99
2018-10-09T02:49:26.157Z,99.99
2018-10-09T02:50:26.171Z,99.99
2018-10-09T02:51:26.191Z,99.99
2018-10-09T02:52:26.209Z,99.99
2018-10-09T02:53:26.224Z,99.99
2018-10-09T02:54:26.240Z,99.99
2018-10-09T02:55:26.261Z,99.99
2018-10-09T02:56:26.273Z,99.99
2018-10-09T02:57:26.295Z,99.99
2018-10-09T02:58:26.308Z,99.99
2018-10-09T02:59:26.328Z,99.99
2018-10-09T03:00:26.345Z,99.99
2018-10-09T03:01:26.357Z,99.99
2018-10-09T03:02:26.376Z,99.99
2018-10-09T03:03:26.395Z,99.99
2018-10-09T03:04:26.416Z,99.99
2018-10-09T03:05:26.427Z,99.99
2018-10-09T03:06:26.445Z,99.99
2018-10-09T03:07:26.461Z,99.99
2018-10-09T03:08:26.532Z,99.99
2018-10-09T03:09:26.497Z,99.99
2018-10-09T03:10:26.512Z,99.99
2018-10-09T03:11:26.531Z,99.99
2018-10-09T03:12:26.547Z,99.99
2018-10-09T03:13:26.567Z,99.99
2018-10-09T03:14:26.581Z,99.99
2018-10-09T03:15:26.596Z,99.99
2018-10-09T03:16:26.614Z,99.99
2018-10-09T03:17:26.629Z,99.99
2018-10-09T03:18:26.649Z,99.99
2018-10-09T03:19:26.664Z,99.99
2018-10-09T03:20:26.727Z,99.99
2018-10-09T03:21:26.697Z,99.99
2018-10-09T03:22:26.716Z,99.99
2018-10-09T03:23:26.731Z,99.99
2018-10-09T03:24:26.747Z,99.99
2018-10-09T03:25:27.064Z,99.99
2018-10-09T03:26:26.785Z,99.99
2018-10-09T03:27:26.799Z,99.99
2018-10-09T03:28:26.818Z,99.99
2018-10-09T03:29:26.834Z,99.99
2018-10-09T03:30:26.850Z,99.99
2018-10-09T03:31:26.875Z,99.99
2018-10-09T03:32:26.885Z,99.99
2018-10-09T03:33:26.900Z,99.99
2018-10-09T03:34:26.919Z,99.99
2018-10-09T03:35:26.933Z,99.99
2018-10-09T03:36:26.950Z,99.99
2018-10-09T03:37:26.970Z,99.99
2018-10-09T03:38:26.986Z,99.99
2018-10-09T03:39:27.000Z,99.99
2018-10-09T03:40:27.017Z,99.99
2018-10-09T03:41:27.037Z,99.99
2018-10-09T03:42:27.059Z,99.99
2018-10-09T03:43:27.070Z,99.99
2018-10-09T03:44:27.090Z,99.99
2018-10-09T03:45:27.101Z,99.99
2018-10-09T03:46:27.469Z,99.99
2018-10-09T03:47:27.135Z,99.99
2018-10-09T03:48:27.150Z,99.99
2018-10-09T03:49:27.168Z,99.99
2018-10-09T03:50:27.188Z,99.99
2018-10-09T03:51:27.213Z,99.99
2018-10-09T03:52:27.218Z,99.99
2018-10-09T03:53:27.239Z,99.99
2018-10-09T03:54:27.254Z,99.99
2018-10-09T03:55:27.272Z,99.99
2018-10-09T03:56:27.292Z,99.99
2018-10-09T03:57:27.303Z,99.99
2018-10-09T03:58:27.324Z,99.99
2018-10-09T03:59:27.339Z,99.99
2018-10-09T04:00:27.355Z,99.99
2018-10-09T04:01:27.378Z,99.99
2018-10-09T04:02:27.389Z,99.99
2018-10-09T04:03:27.404Z,99.99
2018-10-09T04:04:27.419Z,99.99
2018-10-09T04:05:27.437Z,99.99
2018-10-09T04:06:27.457Z,99.99
2018-10-09T04:07:27.473Z,99.99
2018-10-09T04:08:27.486Z,99.99
2018-10-09T04:09:27.575Z,99.99
2018-10-09T04:10:27.532Z,99.99
2018-10-09T04:11:27.539Z,99.99
2018-10-09T04:12:27.556Z,99.99
2018-10-09T04:13:27.572Z,99.99
2018-10-09T04:14:27.588Z,99.99
2018-10-09T04:15:27.606Z,99.99
2018-10-09T04:16:27.621Z,99.99
2018-10-09T04:17:27.639Z,99.99
2018-10-09T04:18:27.655Z,99.99
2018-10-09T04:19:27.684Z,99.99
2018-10-09T04:20:27.687Z,99.99
2018-10-09T04:21:27.707Z,99.99
2018-10-09T04:22:27.723Z,99.99
2018-10-09T04:23:27.742Z,99.99
2018-10-09T04:24:27.757Z,99.99
2018-10-09T04:25:27.771Z,99.99
2018-10-09T04:26:27.789Z,99.99
2018-10-09T04:27:27.808Z,99.99
2018-10-09T04:28:27.821Z,99.99
2018-10-09T04:29:27.912Z,99.99
2018-10-09T04:30:27.858Z,99.99
2018-10-09T04:31:27.872Z,99.99
2018-10-09T04:32:27.890Z,99.99
2018-10-09T04:33:27.906Z,99.99
2018-10-09T04:34:27.923Z,99.99
2018-10-09T04:35:27.973Z,99.99
2018-10-09T04:36:27.955Z,99.99
2018-10-09T04:37:27.975Z,99.99
2018-10-09T04:38:27.988Z,99.99
2018-10-09T04:39:28.007Z,99.99
2018-10-09T04:40:28.025Z,99.99
2018-10-09T04:41:28.038Z,99.99
2018-10-09T04:42:28.058Z,99.99
2018-10-09T04:43:28.072Z,99.99
2018-10-09T04:44:28.092Z,99.99
2018-10-09T04:45:28.165Z,99.99
2018-10-09T04:46:28.122Z,99.99
2018-10-09T04:47:28.140Z,99.99
2018-10-09T04:48:28.158Z,99.99
2018-10-09T04:49:28.173Z,99.99
2018-10-09T04:50:28.193Z,99.99
2018-10-09T04:51:28.209Z,99.99
2018-10-09T04:52:28.222Z,99.99
2018-10-09T04:53:28.243Z,99.99
2018-10-09T04:54:28.260Z,99.99
2018-10-09T04:55:28.277Z,99.99
2018-10-09T04:56:28.293Z,99.99
2018-10-09T04:57:28.309Z,99.99
2018-10-09T04:58:28.330Z,99.99
2018-10-09T04:59:28.343Z,99.99
2018-10-09T05:00:28.361Z,99.99
2018-10-09T05:01:28.376Z,99.99
2018-10-09T05:02:28.390Z,99.99
2018-10-09T05:03:28.408Z,99.99
2018-10-09T05:04:28.429Z,99.99
2018-10-09T05:05:28.440Z,99.99
2018-10-09T05:06:28.459Z,99.99
2018-10-09T05:07:28.475Z,99.99
2018-10-09T05:08:28.491Z,99.99
2018-10-09T05:09:28.510Z,99.99
2018-10-09T05:10:28.524Z,99.99
2018-10-09T05:11:28.541Z,99.99
2018-10-09T05:12:28.557Z,99.99
2018-10-09T05:13:28.578Z,99.99
2018-10-09T05:14:28.595Z,99.99
2018-10-09T05:15:28.612Z,99.99
2018-10-09T05:16:28.625Z,99.99
2018-10-09T05:17:28.644Z,99.99
2018-10-09T05:18:28.657Z,99.99
2018-10-09T05:19:28.678Z,99.99
2018-10-09T05:20:28.693Z,99.99
2018-10-09T05:21:28.712Z,99.99
2018-10-09T05:22:28.728Z,99.99
2018-10-09T05:23:28.743Z,99.99
2018-10-09T05:24:28.761Z,99.99
2018-10-09T05:25:28.775Z,99.99
2018-10-09T05:26:28.796Z,99.99
2018-10-09T05:27:28.810Z,99.99
2018-10-09T05:28:28.827Z,99.99
2018-10-09T05:29:28.845Z,99.99
2018-10-09T05:30:28.866Z,99.99
2018-10-09T05:31:28.903Z,99.99
2018-10-09T05:32:28.896Z,99.99
2018-10-09T05:33:28.912Z,99.99
2018-10-09T05:34:28.925Z,99.99
2018-10-09T05:35:28.946Z,99.99
2018-10-09T05:36:28.962Z,99.99
2018-10-09T05:37:28.980Z,99.99
2018-10-09T05:38:28.996Z,99.99
2018-10-09T05:39:29.009Z,99.99
2018-10-09T05:40:29.027Z,99.99
2018-10-09T05:41:29.044Z,99.99
2018-10-09T05:42:29.061Z,99.99
2018-10-09T05:43:29.077Z,99.99
2018-10-09T05:44:29.125Z,99.99
2018-10-09T05:45:29.109Z,99.99
2018-10-09T05:46:29.128Z,99.99
2018-10-09T05:47:29.147Z,99.99
2018-10-09T05:48:29.164Z,99.99
2018-10-09T05:49:29.180Z,99.99
2018-10-09T05:50:29.196Z,99.99
2018-10-09T05:51:29.210Z,99.99
2018-10-09T05:52:29.284Z,99.99
2018-10-09T05:53:29.247Z,99.99
2018-10-09T05:54:29.265Z,99.99
2018-10-09T05:55:29.277Z,99.99
2018-10-09T05:56:29.294Z,99.99
2018-10-09T05:57:29.316Z,99.99
2018-10-09T05:58:29.329Z,99.99
2018-10-09T05:59:29.344Z,99.99
2018-10-09T06:00:29.360Z,99.99
2018-10-09T06:01:29.383Z,99.99
2018-10-09T06:02:29.395Z,99.99
2018-10-09T06:03:29.412Z,99.99
2018-10-09T06:04:29.427Z,99.99
2018-10-09T06:05:29.443Z,99.99
2018-10-09T06:06:29.459Z,99.99
2018-10-09T06:07:29.477Z,99.99
2018-10-09T06:08:29.495Z,99.99
2018-10-09T06:09:29.508Z,99.99
2018-10-09T06:10:29.526Z,99.99
2018-10-09T06:11:29.551Z,99.99
2018-10-09T06:12:29.559Z,99.99
2018-10-09T06:13:29.576Z,99.99
2018-10-09T06:14:29.597Z,99.99
2018-10-09T06:15:29.672Z,99.99
2018-10-09T06:16:29.624Z,99.99
2018-10-09T06:17:29.641Z,99.99
2018-10-09T06:18:29.659Z,99.99
2018-10-09T06:19:29.680Z,99.99
2018-10-09T06:20:29.690Z,99.99
2018-10-09T06:21:29.711Z,99.99
2018-10-09T06:22:29.727Z,99.99
2018-10-09T06:23:29.747Z,99.99
2018-10-09T06:24:29.760Z,99.99
2018-10-09T06:25:29.776Z,99.99
2018-10-09T06:26:29.792Z,99.99
2018-10-09T06:27:29.811Z,99.99
2018-10-09T06:28:29.946Z,99.99
2018-10-09T06:29:29.844Z,99.99
2018-10-09T06:30:30.161Z,99.99
2018-10-09T06:31:29.874Z,99.99
2018-10-09T06:32:29.893Z,99.99
2018-10-09T06:33:29.908Z,99.99
2018-10-09T06:34:29.926Z,99.99
2018-10-09T06:35:29.944Z,99.99
2018-10-09T06:36:29.960Z,99.99
2018-10-09T06:37:29.974Z,99.99
2018-10-09T06:38:29.994Z,99.99
2018-10-09T06:39:30.008Z,99.99
2018-10-09T06:40:30.076Z,99.99
2018-10-09T06:41:30.050Z,99.99
2018-10-09T06:42:30.058Z,99.99
2018-10-09T06:43:30.077Z,99.99
2018-10-09T06:44:30.090Z,99.99
2018-10-09T06:45:30.110Z,99.99
2018-10-09T06:46:30.128Z,99.99
2018-10-09T06:47:30.159Z,99.99
2018-10-09T06:48:30.159Z,99.99
2018-10-09T06:49:30.180Z,99.99
2018-10-09T06:50:30.196Z,99.99
2018-10-09T06:51:30.211Z,99.99
2018-10-09T06:52:30.225Z,99.99
2018-10-09T06:53:30.317Z,99.99
2018-10-09T06:54:30.354Z,99.99
2018-10-09T06:55:30.279Z,99.99
2018-10-09T06:56:30.293Z,99.99
2018-10-09T06:57:30.311Z,99.99
2018-10-09T06:58:30.326Z,99.99
2018-10-09T06:59:30.344Z,99.99
2018-10-09T07:00:30.361Z,99.99
2018-10-09T07:01:30.378Z,99.99
2018-10-09T07:02:30.396Z,99.99
2018-10-09T07:03:30.413Z,99.99
2018-10-09T07:04:30.428Z,99.99
2018-10-09T07:05:30.444Z,99.99
2018-10-09T07:06:30.465Z,99.99
2018-10-09T07:07:30.482Z,99.99
2018-10-09T07:08:30.495Z,99.99
2018-10-09T07:09:30.515Z,99.99
2018-10-09T07:10:30.529Z,99.99
2018-10-09T07:11:30.644Z,99.99
2018-10-09T07:12:30.566Z,99.99
2018-10-09T07:13:30.583Z,99.99
2018-10-09T07:14:30.597Z,99.99
2018-10-09T07:15:30.620Z,99.99
2018-10-09T07:16:30.632Z,99.99
2018-10-09T07:17:30.649Z,99.99
2018-10-09T07:18:30.669Z,99.99
2018-10-09T07:19:30.683Z,99.99
2018-10-09T07:20:30.703Z,99.99
2018-10-09T07:21:30.717Z,99.99
2018-10-09T07:22:30.735Z,99.99
2018-10-09T07:23:30.756Z,99.99
2018-10-09T07:24:30.769Z,99.99
2018-10-09T07:25:30.789Z,99.99
2018-10-09T07:26:30.806Z,99.99
2018-10-09T07:27:30.825Z,99.99
2018-10-09T07:28:30.842Z,99.99
2018-10-09T07:29:30.861Z,99.99
2018-10-09T07:30:30.877Z,99.99
2018-10-09T07:31:30.901Z,99.99
2018-10-09T07:32:30.908Z,99.99
2018-10-09T07:33:30.927Z,99.99
2018-10-09T07:34:30.947Z,99.99
2018-10-09T07:35:30.965Z,99.99
2018-10-09T07:36:30.979Z,99.99
2018-10-09T07:37:31.058Z,99.99
2018-10-09T07:38:31.018Z,99.99
2018-10-09T07:39:31.033Z,99.99
2018-10-09T07:40:31.052Z,99.99
2018-10-09T07:41:31.072Z,99.99
2018-10-09T07:42:31.085Z,99.99
2018-10-09T07:43:31.108Z,99.99
2018-10-09T07:44:31.120Z,99.99
2018-10-09T07:45:31.141Z,99.99
2018-10-09T07:46:31.159Z,99.99
2018-10-09T07:47:31.174Z,99.99
2018-10-09T07:48:31.194Z,99.99
2018-10-09T07:49:31.209Z,99.99
2018-10-09T07:50:31.230Z,99.99
2018-10-09T07:51:31.248Z,99.99
2018-10-09T07:52:31.269Z,99.99
2018-10-09T07:53:31.281Z,99.99
2018-10-09T07:54:31.302Z,99.99
2018-10-09T07:55:31.317Z,99.99
2018-10-09T07:56:31.337Z,99.99
2018-10-09T07:57:31.352Z,99.99
2018-10-09T07:58:31.377Z,99.99
2018-10-09T07:59:31.392Z,99.99
2018-10-09T08:00:31.408Z,99.99
2018-10-09T08:01:31.425Z,99.99
2018-10-09T08:02:31.445Z,99.99
2018-10-09T08:03:31.464Z,99.99
2018-10-09T08:04:31.478Z,99.99
2018-10-09T08:05:31.499Z,99.99
2018-10-09T08:06:31.515Z,99.99
2018-10-09T08:07:31.538Z,99.99
2018-10-09T08:08:31.556Z,99.99
2018-10-09T08:09:31.573Z,99.99
2018-10-09T08:10:31.679Z,99.99
2018-10-09T08:11:31.606Z,99.99
2018-10-09T08:12:31.625Z,99.99
2018-10-09T08:13:31.645Z,99.99
2018-10-09T08:14:31.665Z,99.99
2018-10-09T08:15:31.680Z,99.99
2018-10-09T08:16:31.701Z,99.99
2018-10-09T08:17:31.718Z,99.99
2018-10-09T08:18:31.736Z,99.99
2018-10-09T08:19:31.757Z,99.99
2018-10-09T08:20:31.772Z,99.99
2018-10-09T08:21:31.794Z,99.99
2018-10-09T08:22:31.894Z,99.99
2018-10-09T08:23:31.829Z,99.99
2018-10-09T08:24:31.849Z,99.99
2018-10-09T08:25:31.867Z,99.99
2018-10-09T08:26:31.888Z,99.99
2018-10-09T08:27:31.907Z,99.99
2018-10-09T08:28:31.922Z,99.99
2018-10-09T08:29:31.943Z,99.99
2018-10-09T08:30:31.963Z,99.99
2018-10-09T08:31:31.981Z,99.99
2018-10-09T08:32:31.997Z,99.99
2018-10-09T08:33:32.021Z,99.99
2018-10-09T08:34:32.096Z,99.99
2018-10-09T08:35:32.056Z,99.99
2018-10-09T08:36:32.071Z,99.99
2018-10-09T08:37:32.093Z,99.99
2018-10-09T08:38:32.112Z,99.99
2018-10-09T08:39:32.131Z,99.99
2018-10-09T08:40:32.263Z,99.99
2018-10-09T08:41:32.167Z,99.99
2018-10-09T08:42:32.189Z,99.99
2018-10-09T08:43:32.207Z,99.99
2018-10-09T08:44:32.226Z,99.99
2018-10-09T08:45:32.242Z,99.99
2018-10-09T08:46:32.261Z,99.99
2018-10-09T08:47:32.284Z,99.99
2018-10-09T08:48:32.306Z,99.99
2018-10-09T08:49:32.319Z,99.99
2018-10-09T08:50:32.336Z,99.99
2018-10-09T08:51:32.358Z,99.99
2018-10-09T08:52:32.375Z,99.99
2018-10-09T08:53:32.398Z,99.99
2018-10-09T08:54:32.412Z,99.99
2018-10-09T08:55:32.433Z,99.99
2018-10-09T08:56:32.449Z,99.99
2018-10-09T08:57:32.585Z,99.99
2018-10-09T08:58:32.492Z,99.99
2018-10-09T08:59:32.510Z,99.99
2018-10-09T09:00:32.524Z,99.99
2018-10-09T09:01:32.547Z,99.99
2018-10-09T09:02:32.565Z,99.99
2018-10-09T09:03:32.647Z,99.99
2018-10-09T09:04:32.601Z,99.99
2018-10-09T09:05:32.619Z,99.99
2018-10-09T09:06:32.641Z,99.99
2018-10-09T09:07:32.660Z,99.99
2018-10-09T09:08:32.677Z,99.99
2018-10-09T09:09:32.718Z,99.99
2018-10-09T09:10:32.727Z,99.99
2018-10-09T09:11:32.734Z,99.99
2018-10-09T09:12:32.755Z,99.99
2018-10-09T09:13:32.773Z,99.99
2018-10-09T09:14:32.793Z,99.99
2018-10-09T09:15:32.813Z,99.99
2018-10-09T09:16:32.831Z,99.99
2018-10-09T09:17:32.849Z,99.99
2018-10-09T09:18:32.866Z,99.99
2018-10-09T09:19:32.889Z,99.99
2018-10-09T09:20:32.943Z,99.99
2018-10-09T09:21:32.930Z,99.99
2018-10-09T09:22:32.947Z,99.99
2018-10-09T09:23:32.966Z,99.99
2018-10-09T09:24:32.988Z,99.99
2018-10-09T09:25:33.001Z,99.99
2018-10-09T09:26:33.100Z,99.99
2018-10-09T09:27:33.148Z,99.99
2018-10-09T09:28:33.061Z,99.99
2018-10-09T09:29:33.079Z,99.99
2018-10-09T09:30:33.098Z,99.99
2018-10-09T09:31:33.118Z,99.99
2018-10-09T09:32:33.139Z,99.99
2018-10-09T09:33:33.159Z,99.99
2018-10-09T09:34:33.176Z,99.99
2018-10-09T09:35:33.195Z,99.99
2018-10-09T09:36:33.213Z,99.99
2018-10-09T09:37:33.234Z,99.99
2018-10-09T09:38:33.254Z,99.99
2018-10-09T09:39:33.273Z,99.99
2018-10-09T09:40:33.747Z,99.99
2018-10-09T09:41:33.315Z,99.99
2018-10-09T09:42:33.335Z,99.99
2018-10-09T09:43:33.355Z,99.99
2018-10-09T09:44:33.370Z,99.99
2018-10-09T09:45:33.391Z,99.99
2018-10-09T09:46:33.411Z,99.99
2018-10-09T09:47:33.432Z,99.99
2018-10-09T09:48:33.451Z,99.52
2018-10-09T09:49:33.470Z,98.75
2018-10-09T09:50:33.492Z,98.66
2018-10-09T09:51:33.511Z,97.90
2018-10-09T09:52:33.534Z,97.42
2018-10-09T09:53:33.553Z,96.84
2018-10-09T09:54:33.576Z,96.75
2018-10-09T09:55:33.591Z,96.94
2018-10-09T09:56:33.611Z,97.13
2018-10-09T09:57:33.633Z,97.71
2018-10-09T09:58:33.889Z,97.90
2018-10-09T09:59:33.672Z,98.09
2018-10-09T10:00:33.696Z,98.18
2018-10-09T10:01:33.710Z,97.90
2018-10-09T10:02:33.731Z,97.42
2018-10-09T10:03:33.776Z,97.71
2018-10-09T10:04:33.772Z,97.71
2018-10-09T10:05:33.792Z,97.04
2018-10-09T10:06:33.812Z,96.84
2018-10-09T10:07:33.830Z,96.66
2018-10-09T10:08:33.852Z,96.27
2018-10-09T10:09:33.875Z,95.36
2018-10-09T10:10:33.892Z,95.32
2018-10-09T10:11:33.911Z,95.22
2018-10-09T10:12:33.931Z,94.79
2018-10-09T10:13:33.952Z,94.79
2018-10-09T10:14:33.973Z,94.60
2018-10-09T10:15:33.998Z,93.93
2018-10-09T10:16:34.012Z,92.97
2018-10-09T10:17:34.032Z,93.26
2018-10-09T10:18:34.052Z,93.35
2018-10-09T10:19:34.073Z,92.73
2018-10-09T10:20:34.093Z,91.58
2018-10-09T10:21:34.121Z,91.20
2018-10-09T10:22:34.139Z,90.34
2018-10-09T10:23:34.154Z,89.95
2018-10-09T10:24:34.176Z,89.76
2018-10-09T10:25:34.197Z,90.48
2018-10-09T10:26:34.222Z,89.62
2018-10-09T10:27:34.239Z,88.76
2018-10-09T10:28:34.258Z,88.56
2018-10-09T10:29:34.278Z,87.84
2018-10-09T10:30:34.303Z,86.79
2018-10-09T10:31:34.324Z,86.60
2018-10-09T10:32:34.343Z,86.21
2018-10-09T10:33:34.365Z,85.74
2018-10-09T10:34:34.384Z,86.21
2018-10-09T10:35:34.452Z,85.25
2018-10-09T10:36:34.484Z,85.25
2018-10-09T10:37:34.584Z,85.16
2018-10-09T10:38:34.499Z,84.34
2018-10-09T10:39:34.743Z,83.95
2018-10-09T10:40:34.511Z,83.95
2018-10-09T10:41:34.539Z,83.48
2018-10-09T10:42:34.554Z,82.71
2018-10-09T10:43:34.576Z,82.71
2018-10-09T10:44:34.599Z,82.04
2018-10-09T10:45:34.617Z,82.04
2018-10-09T10:46:34.640Z,81.79
2018-10-09T10:47:34.661Z,81.22
2018-10-09T10:48:34.686Z,79.97
2018-10-09T10:49:34.816Z,79.88
2018-10-09T10:50:34.729Z,79.49
2018-10-09T10:51:34.748Z,78.63
2018-10-09T10:52:34.775Z,78.63
2018-10-09T10:53:34.795Z,78.63
2018-10-09T10:54:34.816Z,77.90
2018-10-09T10:55:34.839Z,78.44
2018-10-09T10:56:34.862Z,77.61
2018-10-09T10:57:34.882Z,77.42
2018-10-09T10:58:34.902Z,76.56
2018-10-09T10:59:34.929Z,76.75
2018-10-09T11:00:34.952Z,76.07
2018-10-09T11:01:34.987Z,76.17
2018-10-09T11:02:34.994Z,76.17
2018-10-09T11:03:35.017Z,76.46
2018-10-09T11:04:35.035Z,77.04
2018-10-09T11:05:35.060Z,77.29
2018-10-09T11:06:35.083Z,77.48
2018-10-09T11:07:35.105Z,78.25
2018-10-09T11:08:35.124Z,78.00
2018-10-09T11:09:35.149Z,77.71
2018-10-09T11:10:35.172Z,77.67
2018-10-09T11:11:35.192Z,77.67
2018-10-09T11:12:35.226Z,77.67
2018-10-09T11:13:35.238Z,77.00
2018-10-09T11:14:35.304Z,77.42
2018-10-09T11:15:35.290Z,77.76
2018-10-09T11:16:35.304Z,77.76
2018-10-09T11:17:35.327Z,77.58
2018-10-09T11:18:35.346Z,78.63
2018-10-09T11:19:35.369Z,78.53
2018-10-09T11:20:35.390Z,78.72
2018-10-09T11:21:35.499Z,78.44
2018-10-09T11:22:35.438Z,78.72
2018-10-09T11:23:35.464Z,79.01
2018-10-09T11:24:35.479Z,79.68
2018-10-09T11:25:35.502Z,79.39
2018-10-09T11:26:35.524Z,79.59
2018-10-09T11:27:35.547Z,80.30
2018-10-09T11:28:35.567Z,79.59
2018-10-09T11:29:35.592Z,79.44
2018-10-09T11:30:35.616Z,79.34
2018-10-09T11:31:35.634Z,79.72
2018-10-09T11:32:35.701Z,80.20
2018-10-09T11:33:35.680Z,79.91
2018-10-09T11:34:35.701Z,80.11
2018-10-09T11:35:35.726Z,79.91
2018-10-09T11:36:35.745Z,79.24
2018-10-09T11:37:35.768Z,79.72
2018-10-09T11:38:35.790Z,79.91
2018-10-09T11:39:35.814Z,80.20
2018-10-09T11:40:35.835Z,80.11
2018-10-09T11:41:35.861Z,80.11
2018-10-09T11:42:35.902Z,80.01
2018-10-09T11:43:35.905Z,80.15
2018-10-09T11:44:35.924Z,80.15
2018-10-09T11:45:35.945Z,80.15
2018-10-09T11:46:35.971Z,79.76
2018-10-09T11:47:35.995Z,79.38
2018-10-09T11:48:36.015Z,79.28
2018-10-09T11:49:36.035Z,78.90
2018-10-09T11:50:36.060Z,78.80
2018-10-09T11:51:36.081Z,78.90
2018-10-09T11:52:36.107Z,79.19
2018-10-09T11:53:36.125Z,79.28
2018-10-09T11:54:36.152Z,79.91
2018-10-09T11:55:36.175Z,80.30
2018-10-09T11:56:36.195Z,80.82
2018-10-09T11:57:36.219Z,80.53
2018-10-09T11:58:36.277Z,80.58
2018-10-09T11:59:36.261Z,80.24
2018-10-09T12:00:36.287Z,80.24
2018-10-09T12:01:36.308Z,80.15
2018-10-09T12:02:36.363Z,79.76
2018-10-09T12:03:36.354Z,79.38
2018-10-09T12:04:36.377Z,79.76
2018-10-09T12:05:36.461Z,79.76
2018-10-09T12:06:36.420Z,78.90
2018-10-09T12:07:36.446Z,79.19
2018-10-09T12:08:36.464Z,79.76
2018-10-09T12:09:36.488Z,78.99
2018-10-09T12:10:36.514Z,79.47
2018-10-09T12:11:36.537Z,79.47
2018-10-09T12:12:36.559Z,79.19
2018-10-09T12:13:36.578Z,79.57
2018-10-09T12:14:36.610Z,79.38
2018-10-09T12:15:36.626Z,79.76
2018-10-09T12:16:36.647Z,79.67
2018-10-09T12:17:36.674Z,79.76
2018-10-09T12:18:36.693Z,80.15
2018-10-09T12:19:36.716Z,80.34
2018-10-09T12:20:36.740Z,80.63
2018-10-09T12:21:36.861Z,81.20
2018-10-09T12:22:36.783Z,81.01
2018-10-09T12:23:36.809Z,80.91
2018-10-09T12:24:37.082Z,79.96
2018-10-09T12:25:36.854Z,79.67
2018-10-09T12:26:36.874Z,79.38
2018-10-09T12:27:36.900Z,79.47
2018-10-09T12:28:36.921Z,79.57
2018-10-09T12:29:36.943Z,79.28
2018-10-09T12:30:36.965Z,78.70
2018-10-09T12:31:36.990Z,78.23
2018-10-09T12:32:37.009Z,78.90
2018-10-09T12:33:37.035Z,78.80
2018-10-09T12:34:37.058Z,78.90
2018-10-09T12:35:37.078Z,79.13
2018-10-09T12:36:37.102Z,79.19
2018-10-09T12:37:37.123Z,78.42
2018-10-09T12:38:37.145Z,78.23
2018-10-09T12:39:37.171Z,79.19
2018-10-09T12:40:37.192Z,79.80
2018-10-09T12:41:37.217Z,78.61
2018-10-09T12:42:37.238Z,78.61
2018-10-09T12:43:37.261Z,78.32
2018-10-09T12:44:37.280Z,77.78
2018-10-09T12:45:37.303Z,77.21
2018-10-09T12:46:37.327Z,77.17
2018-10-09T12:47:37.351Z,77.59
2018-10-09T12:48:37.373Z,77.50
2018-10-09T12:49:37.396Z,77.31
2018-10-09T12:50:37.418Z,77.21
2018-10-09T12:51:37.440Z,76.73
2018-10-09T12:52:37.465Z,76.82